Time;durP1;ratioP1;P1;durP2;ratioP2;P2;SDS_P1;SDS_P2;PMS_P1;PMS_P2;Temp;Humidity;BMP_temperature;BMP_pressure;BME280_temperature;BME280_humidity;BME280_pressure;Samples;Min_cycle;Max_cycle;Signal;HPM_P1;HPM_P2
2023/11/01 00:00:20;;;;;;;2.15;0.70;;;11.90;99.90;;;;;;6217315;28;20056;-81
2023/11/01 00:03:22;;;;;;;2.30;0.90;;;11.80;99.90;;;;;;6221022;28;20069;-81
2023/11/01 00:06:24;;;;;;;1.48;0.60;;;11.90;99.90;;;;;;6219819;28;20137;-80
2023/11/01 00:09:25;;;;;;;3.38;0.60;;;11.80;99.90;;;;;;6221123;28;20057;-81
2023/11/01 00:12:27;;;;;;;1.75;0.50;;;11.80;99.90;;;;;;6221082;28;20053;-80
2023/11/01 00:15:28;;;;;;;1.77;0.40;;;11.90;99.90;;;;;;6216850;28;20542;-81
2023/11/01 00:18:30;;;;;;;0.90;0.50;;;11.90;99.90;;;;;;6220985;28;20417;-81
2023/11/01 00:21:32;;;;;;;1.27;0.45;;;11.90;99.90;;;;;;6219500;28;20045;-81
2023/11/01 00:24:33;;;;;;;0.98;0.50;;;11.90;99.90;;;;;;6220986;28;20065;-81
2023/11/01 00:27:35;;;;;;;0.75;0.40;;;11.90;99.90;;;;;;6218755;28;20050;-81
2023/11/01 00:30:36;;;;;;;2.83;0.60;;;12.00;99.90;;;;;;6217659;28;20061;-81
2023/11/01 00:33:38;;;;;;;2.10;0.50;;;12.00;99.90;;;;;;6220124;28;20064;-81
2023/11/01 00:36:40;;;;;;;1.08;0.40;;;12.00;99.90;;;;;;6220420;28;20049;-81
2023/11/01 00:39:41;;;;;;;3.10;0.50;;;11.90;99.90;;;;;;6219021;28;20050;-81
2023/11/01 00:42:43;;;;;;;1.92;0.40;;;12.00;99.90;;;;;;6220003;28;20061;-81
2023/11/01 00:45:45;;;;;;;1.35;0.50;;;12.10;99.90;;;;;;6218292;28;20053;-80
2023/11/01 00:48:46;;;;;;;2.38;0.60;;;12.10;99.90;;;;;;6170708;28;20047;-81
2023/11/01 00:51:48;;;;;;;1.90;0.73;;;12.10;99.90;;;;;;6219135;28;20061;-81
2023/11/01 00:54:49;;;;;;;3.53;0.80;;;12.20;99.90;;;;;;6220189;28;20049;-81
2023/11/01 00:57:51;;;;;;;2.15;0.50;;;12.10;99.90;;;;;;6218254;28;20806;-81
2023/11/01 01:00:52;;;;;;;6.28;0.80;;;12.10;99.90;;;;;;6217516;28;20045;-81
2023/11/01 01:03:54;;;;;;;3.00;0.73;;;12.10;99.90;;;;;;6171613;28;20059;-81
2023/11/01 01:06:56;;;;;;;3.95;0.80;;;12.10;99.90;;;;;;6219105;28;20068;-81
2023/11/01 01:09:57;;;;;;;5.45;1.20;;;12.10;99.90;;;;;;6218426;28;20073;-82
2023/11/01 01:12:59;;;;;;;5.30;0.95;;;12.20;99.90;;;;;;6219224;28;20058;-81
2023/11/01 01:16:03;;;;;;;4.68;1.05;;;12.20;99.90;;;;;;6217507;28;20054;-82
2023/11/01 01:19:04;;;;;;;7.50;1.50;;;12.30;99.90;;;;;;6219945;28;20081;-81
2023/11/01 01:22:06;;;;;;;8.00;1.35;;;12.20;99.90;;;;;;6220114;28;20523;-81
2023/11/01 01:25:08;;;;;;;10.60;1.55;;;12.30;99.90;;;;;;6218282;28;20053;-81
2023/11/01 01:28:09;;;;;;;6.45;1.23;;;12.30;99.90;;;;;;6215730;28;20050;-80
2023/11/01 01:31:12;;;;;;;5.15;1.35;;;12.30;99.90;;;;;;6218198;28;20045;-81
2023/11/01 01:34:13;;;;;;;9.23;1.60;;;12.30;99.90;;;;;;6219617;28;20402;-81
2023/11/01 01:37:15;;;;;;;11.07;1.90;;;12.30;99.90;;;;;;6218301;28;20413;-82
2023/11/01 01:40:17;;;;;;;7.60;1.35;;;12.30;99.90;;;;;;6218847;28;20053;-83
2023/11/01 01:43:18;;;;;;;7.97;1.10;;;12.40;99.90;;;;;;6215113;28;20057;-81
2023/11/01 01:46:22;;;;;;;16.92;1.90;;;12.40;99.90;;;;;;6217935;28;20061;-82
2023/11/01 01:49:23;;;;;;;6.85;1.35;;;12.50;99.90;;;;;;6219357;28;20148;-81
2023/11/01 01:52:37;;;;;;;9.70;1.60;;;12.50;99.90;;;;;;6195209;28;20062;-82
2023/11/01 01:55:38;;;;;;;7.20;1.75;;;12.60;99.90;;;;;;6218629;28;20054;-82
2023/11/01 01:58:40;;;;;;;13.45;1.80;;;12.70;99.90;;;;;;6217010;28;20058;-82
2023/11/01 02:01:41;;;;;;;16.75;2.20;;;12.70;99.90;;;;;;6217570;28;20049;-82
2023/11/01 02:04:46;;;;;;;9.98;1.50;;;12.70;99.90;;;;;;6217578;28;20477;-81
2023/11/01 02:07:47;;;;;;;21.50;2.25;;;12.80;99.90;;;;;;6218760;28;20477;-80
2023/11/01 02:10:49;;;;;;;12.23;2.10;;;12.80;99.90;;;;;;6219148;28;20076;-82
2023/11/01 02:13:50;;;;;;;12.23;2.45;;;12.90;99.90;;;;;;6215620;28;20063;-81
2023/11/01 02:16:52;;;;;;;15.93;2.00;;;12.90;99.90;;;;;;6217061;28;20056;-80
2023/11/01 02:19:54;;;;;;;12.60;1.80;;;13.00;99.90;;;;;;6219119;28;20072;-81
2023/11/01 02:22:55;;;;;;;24.58;2.75;;;13.00;99.90;;;;;;6219122;28;20061;-80
2023/11/01 02:25:57;;;;;;;12.20;2.42;;;13.10;99.90;;;;;;6218865;28;20046;-81
2023/11/01 02:28:59;;;;;;;13.48;2.25;;;13.20;99.90;;;;;;6215813;28;20065;-81
2023/11/01 02:32:00;;;;;;;15.32;2.08;;;13.20;99.90;;;;;;6218572;28;20065;-80
2023/11/01 02:35:03;;;;;;;19.15;2.55;;;13.30;99.90;;;;;;6218455;28;20053;-80
2023/11/01 02:38:05;;;;;;;20.38;2.65;;;13.30;99.90;;;;;;6218454;28;20058;-81
2023/11/01 02:41:07;;;;;;;16.33;2.53;;;13.20;99.90;;;;;;6218447;28;20050;-81
2023/11/01 02:44:08;;;;;;;19.65;2.47;;;13.20;99.90;;;;;;6215229;28;20054;-80
2023/11/01 02:47:10;;;;;;;13.90;2.63;;;13.30;99.90;;;;;;6218428;28;20053;-80
2023/11/01 02:50:12;;;;;;;16.98;2.30;;;13.30;99.90;;;;;;6218520;28;20058;-80
2023/11/01 02:53:14;;;;;;;20.27;2.97;;;13.30;99.90;;;;;;6221828;28;20057;-80
2023/11/01 02:56:15;;;;;;;14.90;1.95;;;13.30;99.90;;;;;;6221618;28;20045;-81
2023/11/01 02:59:17;;;;;;;12.15;2.00;;;13.30;99.90;;;;;;6212383;28;20426;-81
2023/11/01 03:02:18;;;;;;;19.58;2.83;;;13.30;99.90;;;;;;6222421;28;20159;-80
2023/11/01 03:05:21;;;;;;;14.75;2.33;;;13.30;99.90;;;;;;6219009;28;20058;-80
2023/11/01 03:08:22;;;;;;;22.65;2.60;;;13.40;99.90;;;;;;6222687;28;20050;-80
2023/11/01 03:11:24;;;;;;;11.85;2.05;;;13.40;99.90;;;;;;6222166;28;20050;-80
2023/11/01 03:14:26;;;;;;;14.50;2.05;;;13.50;99.90;;;;;;6218574;28;20515;-80
2023/11/01 03:17:28;;;;;;;20.58;2.72;;;13.40;99.90;;;;;;6222337;28;20167;-81
2023/11/01 03:20:29;;;;;;;11.27;1.88;;;13.40;99.90;;;;;;6221085;28;20505;-80
2023/11/01 03:23:31;;;;;;;11.35;1.90;;;13.50;99.90;;;;;;6221173;28;20144;-80
2023/11/01 03:26:33;;;;;;;10.50;2.47;;;13.50;99.90;;;;;;6222496;28;20054;-79
2023/11/01 03:29:35;;;;;;;7.90;1.83;;;13.50;99.90;;;;;;6219673;28;20049;-80
2023/11/01 03:32:37;;;;;;;9.40;2.10;;;13.50;99.90;;;;;;6221972;28;20096;-81
2023/11/01 03:35:39;;;;;;;9.20;1.20;;;13.50;99.90;;;;;;6222174;28;20413;-80
2023/11/01 03:38:40;;;;;;;7.60;1.40;;;13.50;99.90;;;;;;6222261;28;20057;-80
2023/11/01 03:41:42;;;;;;;9.57;1.40;;;13.50;99.90;;;;;;6221733;28;20058;-80
2023/11/01 03:44:44;;;;;;;8.57;1.15;;;13.60;99.90;;;;;;6220228;28;20494;-80
2023/11/01 03:47:46;;;;;;;7.15;1.17;;;13.60;99.90;;;;;;6222701;28;20052;-80
2023/11/01 03:50:48;;;;;;;6.45;1.08;;;13.50;99.90;;;;;;6221457;28;20064;-81
2023/11/01 03:53:50;;;;;;;9.05;1.20;;;13.60;99.90;;;;;;6221666;28;20065;-79
2023/11/01 03:56:51;;;;;;;7.93;1.30;;;13.60;99.90;;;;;;6221855;28;20065;-79
2023/11/01 03:59:54;;;;;;;8.80;1.50;;;13.50;99.90;;;;;;6218510;28;20065;-79
2023/11/01 04:02:56;;;;;;;4.97;1.10;;;13.50;99.90;;;;;;6220725;28;20200;-79
2023/11/01 04:05:57;;;;;;;8.57;1.35;;;13.40;99.90;;;;;;6219170;28;20061;-79
2023/11/01 04:08:59;;;;;;;10.68;1.45;;;13.40;99.90;;;;;;6221109;28;20045;-81
2023/11/01 04:12:00;;;;;;;8.55;1.60;;;13.30;99.90;;;;;;6219461;28;20049;-79
2023/11/01 04:15:05;;;;;;;8.45;1.60;;;13.40;99.90;;;;;;6216429;28;20417;-80
2023/11/01 04:18:06;;;;;;;11.88;2.13;;;13.30;99.90;;;;;;6221197;28;20057;-80
2023/11/01 04:21:08;;;;;;;11.65;1.95;;;13.30;99.90;;;;;;6219536;28;20506;-80
2023/11/01 04:24:10;;;;;;;11.05;1.70;;;13.30;99.90;;;;;;6220809;28;20056;-79
2023/11/01 04:27:11;;;;;;;14.68;2.00;;;13.30;99.90;;;;;;6219692;28;20061;-80
2023/11/01 04:30:13;;;;;;;10.82;1.95;;;13.30;99.90;;;;;;6218035;28;20053;-80
2023/11/01 04:33:16;;;;;;;16.35;2.25;;;13.30;99.90;;;;;;6219302;28;20061;-80
2023/11/01 04:36:23;;;;;;;13.40;2.00;;;13.20;99.90;;;;;;6219369;28;20077;-80
2023/11/01 04:39:25;;;;;;;14.52;2.50;;;13.20;99.90;;;;;;6187082;28;20059;-80
2023/11/01 04:42:26;;;;;;;14.63;2.35;;;13.20;99.90;;;;;;6219573;28;20053;-81
2023/11/01 04:45:28;;;;;;;15.43;2.78;;;13.10;99.90;;;;;;6219850;28;20061;-81
2023/11/01 04:48:29;;;;;;;15.45;2.30;;;13.10;99.90;;;;;;6218741;28;20061;-81
2023/11/01 04:51:31;;;;;;;13.18;2.80;;;13.10;99.90;;;;;;6220126;28;20524;-80
2023/11/01 04:54:33;;;;;;;19.00;4.40;;;13.00;99.90;;;;;;6219709;28;20429;-81
2023/11/01 04:57:34;;;;;;;16.80;2.67;;;13.10;99.90;;;;;;6218937;28;20054;-80
2023/11/01 05:00:37;;;;;;;16.23;2.47;;;13.00;99.90;;;;;;6199036;28;20042;-81
2023/11/01 05:03:39;;;;;;;15.18;2.78;;;13.00;99.90;;;;;;6220146;28;20481;-82
2023/11/01 05:06:41;;;;;;;12.50;2.25;;;13.00;99.90;;;;;;6216054;28;20046;-81
2023/11/01 05:09:42;;;;;;;14.13;2.80;;;13.00;99.90;;;;;;6219805;28;20560;-81
2023/11/01 05:12:44;;;;;;;16.30;2.42;;;13.00;99.90;;;;;;6219126;28;20654;-81
2023/11/01 05:15:45;;;;;;;21.33;2.92;;;13.00;99.90;;;;;;6212369;28;20061;-82
2023/11/01 05:18:47;;;;;;;20.10;2.03;;;12.90;99.90;;;;;;6218259;28;20086;-81
2023/11/01 05:21:49;;;;;;;15.75;3.30;;;13.00;99.90;;;;;;6218054;28;20054;-81
2023/11/01 05:24:51;;;;;;;12.15;2.05;;;13.00;99.90;;;;;;6219733;28;20046;-82
2023/11/01 05:27:52;;;;;;;11.57;1.88;;;13.10;99.90;;;;;;6219232;28;20053;-82
2023/11/01 05:30:54;;;;;;;13.25;2.03;;;13.10;99.90;;;;;;6216331;28;20054;-81
2023/11/01 05:33:56;;;;;;;12.02;2.28;;;13.20;99.90;;;;;;6171054;28;20062;-82
2023/11/01 05:36:57;;;;;;;16.25;1.48;;;13.20;99.90;;;;;;6233086;28;20053;-80
2023/11/01 05:39:59;;;;;;;7.80;1.55;;;13.30;99.90;;;;;;6219101;28;20057;-81
2023/11/01 05:43:00;;;;;;;14.15;1.85;;;13.40;99.90;;;;;;6217477;28;20050;-81
2023/11/01 05:46:03;;;;;;;13.23;2.75;;;13.40;99.90;;;;;;6218026;28;20061;-81
2023/11/01 05:49:08;;;;;;;8.35;1.60;;;13.40;99.90;;;;;;6218038;28;20493;-81
2023/11/01 05:52:09;;;;;;;10.85;2.05;;;13.40;99.90;;;;;;6217529;28;20184;-80
2023/11/01 05:55:11;;;;;;;10.07;2.20;;;13.50;99.90;;;;;;6218783;28;20064;-79
2023/11/01 05:58:24;;;;;;;8.82;1.92;;;13.60;99.80;;;;;;6200200;28;20058;-81
2023/11/01 06:01:26;;;;;;;7.93;1.75;;;13.70;99.10;;;;;;6217941;28;20057;-80
2023/11/01 06:04:27;;;;;;;13.75;2.30;;;13.50;99.90;;;;;;6219082;28;20060;-82
2023/11/01 06:07:29;;;;;;;11.45;1.67;;;13.60;99.90;;;;;;6216648;28;20054;-80
2023/11/01 06:10:31;;;;;;;14.30;1.70;;;13.50;99.90;;;;;;6218785;28;20482;-80
2023/11/01 06:13:32;;;;;;;12.75;1.90;;;13.50;99.90;;;;;;6218092;28;20497;-80
2023/11/01 06:16:34;;;;;;;15.02;2.40;;;13.60;99.90;;;;;;6218558;28;20054;-81
2023/11/01 06:19:35;;;;;;;15.57;2.33;;;13.60;99.90;;;;;;6217124;28;20054;-80
2023/11/01 06:22:37;;;;;;;14.45;2.20;;;13.60;99.90;;;;;;6217281;28;20404;-82
2023/11/01 06:25:39;;;;;;;15.30;1.95;;;13.60;99.60;;;;;;6217399;28;20505;-82
2023/11/01 06:28:40;;;;;;;11.30;1.83;;;13.70;99.40;;;;;;6217685;28;20058;-81
2023/11/01 06:31:42;;;;;;;25.27;2.10;;;13.70;99.30;;;;;;6223713;28;20061;-82
2023/11/01 06:34:43;;;;;;;18.42;2.25;;;13.70;99.50;;;;;;6221758;28;20050;-82
2023/11/01 06:37:47;;;;;;;13.85;1.75;;;13.70;99.40;;;;;;6222021;28;20054;-80
2023/11/01 06:40:48;;;;;;;18.65;2.78;;;13.70;99.80;;;;;;6223034;28;20509;-80
2023/11/01 06:43:50;;;;;;;10.55;1.98;;;13.60;99.90;;;;;;6220110;28;20045;-82
2023/11/01 06:46:52;;;;;;;12.23;1.95;;;13.60;99.90;;;;;;6221634;28;20449;-81
2023/11/01 06:49:54;;;;;;;11.60;2.13;;;13.50;99.90;;;;;;6222712;28;20046;-81
2023/11/01 06:52:56;;;;;;;12.10;2.20;;;13.50;99.90;;;;;;6221402;28;20064;-80
2023/11/01 06:55:57;;;;;;;13.00;2.45;;;13.50;99.90;;;;;;6221464;28;20060;-81
2023/11/01 06:58:59;;;;;;;19.35;2.00;;;13.40;99.90;;;;;;6219986;28;20053;-80
2023/11/01 07:02:01;;;;;;;10.55;1.63;;;13.50;99.90;;;;;;6223246;28;20083;-81
2023/11/01 07:05:04;;;;;;;14.32;2.33;;;13.40;99.90;;;;;;6223013;28;20054;-82
2023/11/01 07:08:06;;;;;;;12.80;1.88;;;13.40;99.90;;;;;;6219609;28;20111;-82
2023/11/01 07:11:08;;;;;;;9.18;1.85;;;13.40;99.90;;;;;;6222796;28;20072;-83
2023/11/01 07:14:09;;;;;;;10.52;1.60;;;13.40;99.90;;;;;;6220509;28;20073;-81
2023/11/01 07:17:11;;;;;;;17.15;2.10;;;13.40;99.90;;;;;;6222607;28;20056;-81
2023/11/01 07:20:12;;;;;;;9.18;1.60;;;13.40;99.90;;;;;;6222061;28;20058;-80
2023/11/01 07:23:14;;;;;;;13.77;2.25;;;13.50;99.90;;;;;;6220824;28;20053;-81
2023/11/01 07:26:16;;;;;;;12.45;2.10;;;13.40;99.90;;;;;;6220609;28;20057;-81
2023/11/01 07:29:17;;;;;;;11.60;2.20;;;13.50;99.90;;;;;;6219801;28;20493;-80
2023/11/01 07:32:19;;;;;;;9.43;1.80;;;13.40;99.90;;;;;;6220828;28;20058;-80
2023/11/01 07:35:24;;;;;;;11.43;1.90;;;13.40;99.90;;;;;;6222035;28;20046;-81
2023/11/01 07:38:25;;;;;;;9.25;1.50;;;13.40;99.90;;;;;;6220920;28;20057;-81
2023/11/01 07:41:27;;;;;;;13.05;1.80;;;13.40;99.90;;;;;;6222355;28;20054;-82
2023/11/01 07:44:35;;;;;;;11.35;1.90;;;13.30;99.90;;;;;;6219176;28;20421;-81
2023/11/01 07:47:38;;;;;;;12.55;2.35;;;13.30;99.90;;;;;;6223069;28;20084;-81
2023/11/01 07:50:41;;;;;;;11.18;2.10;;;13.20;99.90;;;;;;6221406;28;20053;-80
2023/11/01 07:53:43;;;;;;;10.27;1.80;;;13.10;99.90;;;;;;6220688;28;20103;-81
2023/11/01 07:56:45;;;;;;;13.93;2.03;;;13.10;99.90;;;;;;6221041;28;20050;-80
2023/11/01 07:59:47;;;;;;;11.02;2.25;;;13.10;99.90;;;;;;6220878;28;20152;-81
2023/11/01 08:02:49;;;;;;;10.10;1.92;;;13.00;99.90;;;;;;6219591;28;20045;-82
2023/11/01 08:05:51;;;;;;;8.10;1.98;;;13.00;99.90;;;;;;6221255;28;20095;-80
2023/11/01 08:08:53;;;;;;;12.95;1.95;;;12.90;99.90;;;;;;6198858;28;20064;-79
2023/11/01 08:11:54;;;;;;;11.43;1.88;;;13.00;99.90;;;;;;6220394;28;20140;-79
2023/11/01 08:14:56;;;;;;;11.50;1.90;;;13.00;99.90;;;;;;6214816;28;20160;-81
2023/11/01 08:17:58;;;;;;;10.85;1.80;;;13.00;99.90;;;;;;6195845;28;20061;-80
2023/11/01 08:20:59;;;;;;;13.05;1.80;;;13.00;99.90;;;;;;6198446;28;20197;-82
2023/11/01 08:24:01;;;;;;;11.50;1.75;;;13.00;99.90;;;;;;6220192;28;20065;-81
2023/11/01 08:27:03;;;;;;;8.80;1.98;;;13.00;99.90;;;;;;6219020;28;20061;-81
2023/11/01 08:30:04;;;;;;;8.65;1.35;;;13.00;99.90;;;;;;6217285;28;20054;-82
2023/11/01 08:33:07;;;;;;;7.85;1.27;;;13.00;99.90;;;;;;6218293;28;20141;-79
2023/11/01 08:36:09;;;;;;;6.95;1.10;;;13.00;99.90;;;;;;6220564;28;20127;-79
2023/11/01 08:39:11;;;;;;;8.43;1.20;;;12.90;99.90;;;;;;6219811;28;20095;-80
2023/11/01 08:42:13;;;;;;;4.47;0.93;;;13.00;99.90;;;;;;6218370;28;20050;-80
2023/11/01 08:45:14;;;;;;;7.05;1.13;;;12.90;99.90;;;;;;6217947;28;20065;-80
2023/11/01 08:48:17;;;;;;;6.65;1.10;;;12.90;99.90;;;;;;6219239;28;20497;-80
2023/11/01 08:51:19;;;;;;;6.63;1.40;;;12.80;99.90;;;;;;6219499;28;20087;-80
2023/11/01 08:54:20;;;;;;;5.72;0.90;;;12.70;99.90;;;;;;6219146;28;20053;-80
2023/11/01 08:57:22;;;;;;;3.92;0.90;;;12.60;99.90;;;;;;6219301;28;20061;-79
2023/11/01 09:00:24;;;;;;;6.68;0.80;;;12.60;99.90;;;;;;6218969;28;20417;-80
2023/11/01 09:03:43;;;;;;;5.30;0.82;;;12.60;99.90;;;;;;6195856;28;20061;-79
2023/11/01 09:06:45;;;;;;;5.80;1.00;;;12.50;99.90;;;;;;6219485;28;20144;-79
2023/11/01 09:09:46;;;;;;;5.15;0.85;;;12.50;99.90;;;;;;6217617;28;20050;-79
2023/11/01 09:12:48;;;;;;;7.35;1.25;;;12.50;99.90;;;;;;6218875;28;20404;-81
2023/11/01 09:15:50;;;;;;;4.85;0.80;;;12.40;99.90;;;;;;6205738;28;20050;-81
2023/11/01 09:18:52;;;;;;;3.72;0.90;;;12.40;99.90;;;;;;6218732;28;20153;-81
2023/11/01 09:21:53;;;;;;;4.18;0.88;;;12.50;99.90;;;;;;6217108;28;20091;-78
2023/11/01 09:24:55;;;;;;;3.53;0.80;;;12.50;99.90;;;;;;6222194;28;20049;-89
2023/11/01 09:27:58;;;;;;;7.05;1.00;;;12.50;99.90;;;;;;6218647;28;20064;-78
2023/11/01 09:30:59;;;;;;;3.90;0.80;;;12.60;99.90;;;;;;6216041;28;20497;-80
2023/11/01 09:34:01;;;;;;;5.40;1.08;;;12.70;99.90;;;;;;6170981;28;20058;-80
2023/11/01 09:37:03;;;;;;;3.75;0.75;;;12.70;99.90;;;;;;6233208;28;20100;-81
2023/11/01 09:40:05;;;;;;;5.32;1.05;;;12.80;99.90;;;;;;6218288;28;20053;-79
2023/11/01 09:43:10;;;;;;;5.70;1.00;;;12.80;99.90;;;;;;6221324;28;20049;-95
2023/11/01 09:46:12;;;;;;;10.40;1.00;;;12.80;99.70;;;;;;6223946;28;20060;-83
2023/11/01 09:49:13;;;;;;;3.75;0.80;;;12.80;99.90;;;;;;6220048;28;20064;-89
2023/11/01 09:52:15;;;;;;;4.43;0.90;;;12.80;99.90;;;;;;6218586;28;20489;-83
2023/11/01 09:55:17;;;;;;;6.35;1.00;;;12.80;99.90;;;;;;6217569;28;20470;-81
2023/11/01 09:58:19;;;;;;;7.38;1.60;;;13.00;99.90;;;;;;6216984;28;20053;-83
2023/11/01 10:01:21;;;;;;;3.42;0.95;;;13.30;99.90;;;;;;6221070;28;20049;-82
2023/11/01 10:04:23;;;;;;;4.80;1.27;;;13.40;99.90;;;;;;6227829;28;20184;-86
2023/11/01 10:07:25;;;;;;;5.90;1.30;;;13.50;99.90;;;;;;6228792;28;20058;-83
2023/11/01 10:10:26;;;;;;;4.68;0.90;;;13.50;99.90;;;;;;6226546;28;20053;-82
2023/11/01 10:13:28;;;;;;;8.00;1.23;;;13.40;99.80;;;;;;6222466;28;20046;-86
2023/11/01 10:16:30;;;;;;;6.90;1.10;;;13.40;99.50;;;;;;6213048;28;20058;-83
2023/11/01 10:19:31;;;;;;;8.05;1.45;;;13.50;99.70;;;;;;6225531;28;20061;-82
2023/11/01 10:22:33;;;;;;;8.95;1.60;;;13.70;99.90;;;;;;6225927;28;20513;-80
2023/11/01 10:25:36;;;;;;;9.75;1.67;;;13.80;99.30;;;;;;6226917;28;20049;-83
2023/11/01 10:28:38;;;;;;;7.18;1.30;;;14.10;97.90;;;;;;6221771;28;20096;-84
2023/11/01 10:31:39;;;;;;;9.70;1.40;;;14.30;98.60;;;;;;6225134;28;20054;-79
2023/11/01 10:34:41;;;;;;;13.45;1.95;;;14.30;97.80;;;;;;6225863;28;20049;-80
2023/11/01 10:37:43;;;;;;;12.05;2.35;;;14.20;97.00;;;;;;6227292;28;20081;-81
2023/11/01 10:40:44;;;;;;;9.50;1.45;;;14.00;96.30;;;;;;6225959;28;20136;-80
2023/11/01 10:43:46;;;;;;;10.20;1.77;;;14.10;96.50;;;;;;6223607;28;20058;-84
2023/11/01 10:46:48;;;;;;;8.90;1.52;;;14.20;96.60;;;;;;6225220;28;20490;-82
2023/11/01 10:49:49;;;;;;;6.50;1.55;;;14.20;96.90;;;;;;6224947;28;20068;-78
2023/11/01 10:52:51;;;;;;;6.43;1.63;;;14.50;97.20;;;;;;6225840;28;20056;-79
2023/11/01 10:55:53;;;;;;;10.65;1.38;;;14.50;94.40;;;;;;6225943;28;20659;-78
2023/11/01 10:58:54;;;;;;;6.57;1.55;;;14.60;96.10;;;;;;6219824;28;20050;-80
2023/11/01 11:01:56;;;;;;;6.15;1.25;;;14.70;95.30;;;;;;6226351;28;20473;-84
2023/11/01 11:04:57;;;;;;;7.85;1.60;;;14.70;94.40;;;;;;6178194;28;20051;-82
2023/11/01 11:07:59;;;;;;;9.15;1.25;;;15.10;94.80;;;;;;6239749;28;20136;-81
2023/11/01 11:11:01;;;;;;;11.70;1.40;;;15.00;94.70;;;;;;6226892;28;20053;-81
2023/11/01 11:14:02;;;;;;;10.85;1.85;;;15.00;94.10;;;;;;6220099;28;20054;-81
2023/11/01 11:17:04;;;;;;;9.27;1.42;;;15.10;94.00;;;;;;6204310;28;20064;-83
2023/11/01 11:20:06;;;;;;;9.63;1.60;;;15.00;92.90;;;;;;6222345;28;20402;-82
2023/11/01 11:23:08;;;;;;;8.65;1.50;;;14.90;92.00;;;;;;6221694;28;20455;-79
2023/11/01 11:26:12;;;;;;;9.45;1.27;;;15.00;93.70;;;;;;6221337;28;20056;-79
2023/11/01 11:29:14;;;;;;;9.10;2.22;;;15.00;91.40;;;;;;6220560;28;20204;-84
2023/11/01 11:32:16;;;;;;;9.00;1.20;;;15.00;91.40;;;;;;6222916;28;20049;-83
2023/11/01 11:35:17;;;;;;;9.85;1.55;;;14.60;90.50;;;;;;6221288;28;20061;-79
2023/11/01 11:38:19;;;;;;;9.57;1.58;;;14.60;93.10;;;;;;6222128;28;20050;-80
2023/11/01 11:41:21;;;;;;;5.95;1.15;;;14.50;91.50;;;;;;6222690;28;20072;-81
2023/11/01 11:44:25;;;;;;;9.77;2.28;;;14.50;93.00;;;;;;6217095;28;20516;-82
2023/11/01 11:47:27;;;;;;;9.65;1.50;;;14.40;92.20;;;;;;6224696;28;20073;-89
2023/11/01 11:50:28;;;;;;;8.35;1.58;;;14.30;93.90;;;;;;6221473;28;20632;-80
2023/11/01 11:53:30;;;;;;;8.77;1.55;;;14.00;95.00;;;;;;6219091;28;20060;-83
2023/11/01 11:56:32;;;;;;;11.98;1.52;;;14.00;94.30;;;;;;6221318;28;20064;-86
2023/11/01 11:59:34;;;;;;;10.68;1.38;;;14.00;93.60;;;;;;6215190;28;20504;-81
2023/11/01 12:02:36;;;;;;;10.35;1.50;;;13.90;93.70;;;;;;6221780;28;20041;-79
2023/11/01 12:05:37;;;;;;;14.25;1.45;;;13.80;94.40;;;;;;6221715;28;20144;-86
2023/11/01 12:08:40;;;;;;;9.02;1.30;;;13.80;94.70;;;;;;6223291;28;20120;-85
2023/11/01 12:11:42;;;;;;;11.18;1.60;;;13.80;94.20;;;;;;6220884;28;20524;-81
2023/11/01 12:14:44;;;;;;;6.93;1.13;;;13.70;93.70;;;;;;6217209;28;20068;-82
2023/11/01 12:17:46;;;;;;;6.40;1.08;;;13.70;95.40;;;;;;6201880;28;20053;-84
2023/11/01 12:20:48;;;;;;;6.65;1.00;;;13.50;93.30;;;;;;6222456;28;20457;-84
2023/11/01 12:23:49;;;;;;;9.30;1.13;;;13.40;90.30;;;;;;6206498;28;20064;-82
2023/11/01 12:26:51;;;;;;;7.75;1.50;;;13.50;93.10;;;;;;6220522;28;20089;-84
2023/11/01 12:29:53;;;;;;;13.32;1.67;;;13.50;93.30;;;;;;6213521;28;20054;-79
2023/11/01 12:32:54;;;;;;;5.55;1.05;;;13.50;92.50;;;;;;6218524;28;20160;-81
2023/11/01 12:35:56;;;;;;;6.47;1.30;;;13.70;91.80;;;;;;6197430;28;20856;-81
2023/11/01 12:38:57;;;;;;;15.75;2.10;;;14.00;91.00;;;;;;6222209;28;20049;-86
2023/11/01 12:42:00;;;;;;;7.38;1.10;;;15.10;91.60;;;;;;6197410;28;20099;-80
2023/11/01 12:45:03;;;;;;;3.80;1.02;;;15.60;83.10;;;;;;6218938;28;20052;-80
2023/11/01 12:48:06;;;;;;;8.05;1.25;;;15.40;83.10;;;;;;6220353;28;20421;-85
2023/11/01 12:51:09;;;;;;;9.07;1.58;;;15.50;75.00;;;;;;6217919;28;20045;-82
2023/11/01 12:54:11;;;;;;;7.05;1.10;;;15.40;82.50;;;;;;6219946;28;20064;-79
2023/11/01 12:57:13;;;;;;;9.15;1.58;;;15.00;90.00;;;;;;6170436;28;20410;-81
2023/11/01 13:00:15;;;;;;;11.35;1.73;;;14.60;90.80;;;;;;6213646;28;20088;-79
2023/11/01 13:03:16;;;;;;;7.80;1.02;;;14.10;92.50;;;;;;6218652;28;20050;-81
2023/11/01 13:06:18;;;;;;;6.32;1.15;;;13.80;94.20;;;;;;6218428;28;20061;-79
2023/11/01 13:09:20;;;;;;;6.57;1.30;;;13.80;93.90;;;;;;6220382;28;20107;-80
2023/11/01 13:12:21;;;;;;;5.85;1.08;;;13.70;93.70;;;;;;6220299;28;20050;-81
2023/11/01 13:15:24;;;;;;;7.10;1.63;;;13.70;93.70;;;;;;6209070;28;20541;-80
2023/11/01 13:18:26;;;;;;;7.13;1.40;;;13.70;94.50;;;;;;6203146;28;20482;-80
2023/11/01 13:21:28;;;;;;;5.05;1.10;;;14.80;91.20;;;;;;6219149;28;20537;-80
2023/11/01 13:24:30;;;;;;;5.10;0.90;;;15.50;82.00;;;;;;6218687;28;20053;-80
2023/11/01 13:27:31;;;;;;;8.43;1.33;;;15.80;78.70;;;;;;6218956;28;20060;-79
2023/11/01 13:30:33;;;;;;;5.00;1.20;;;15.90;52.30;;;;;;6216002;28;20049;-80
2023/11/01 13:33:35;;;;;;;7.03;1.35;;;16.10;62.30;;;;;;6219465;28;20061;-81
2023/11/01 13:36:36;;;;;;;8.40;1.27;;;15.30;67.70;;;;;;6218099;28;20049;-80
2023/11/01 13:39:38;;;;;;;5.78;1.52;;;14.80;78.10;;;;;;6217762;28;20053;-81
2023/11/01 13:42:39;;;;;;;9.48;1.60;;;14.50;82.80;;;;;;6217581;28;20050;-80
2023/11/01 13:45:41;;;;;;;8.10;1.40;;;14.20;90.10;;;;;;6217576;28;20425;-79
2023/11/01 13:48:43;;;;;;;7.13;1.25;;;13.90;92.00;;;;;;6170759;28;20073;-81
2023/11/01 13:51:45;;;;;;;7.50;1.20;;;14.10;95.30;;;;;;6217833;28;20111;-80
2023/11/01 13:54:47;;;;;;;9.05;1.15;;;14.90;94.50;;;;;;6220311;28;20088;-79
2023/11/01 13:57:48;;;;;;;8.43;1.70;;;15.60;84.00;;;;;;6218565;28;20046;-84
2023/11/01 14:00:50;;;;;;;7.55;1.65;;;15.80;69.60;;;;;;6215214;28;20383;-83
2023/11/01 14:03:51;;;;;;;7.00;2.08;;;16.10;76.50;;;;;;6169266;28;20055;-82
2023/11/01 14:06:53;;;;;;;6.97;1.30;;;15.90;56.50;;;;;;6216123;28;20050;-81
2023/11/01 14:09:55;;;;;;;5.60;1.20;;;15.80;55.50;;;;;;6218605;28;20065;-81
2023/11/01 14:13:02;;;;;;;5.85;1.20;;;15.80;56.50;;;;;;6218500;28;20442;-80
2023/11/01 14:16:04;;;;;;;5.53;1.30;;;15.70;35.30;;;;;;6216754;28;20161;-79
2023/11/01 14:19:06;;;;;;;10.13;1.30;;;15.60;40.60;;;;;;6218529;28;20105;-82
2023/11/01 14:22:10;;;;;;;12.00;1.55;;;15.40;53.80;;;;;;6217239;28;20077;-80
2023/11/01 14:25:12;;;;;;;9.10;1.60;;;14.70;55.20;;;;;;6219468;28;20053;-80
2023/11/01 14:28:16;;;;;;;10.98;1.35;;;14.30;64.40;;;;;;6217387;28;20061;-83
2023/11/01 14:31:19;;;;;;;8.18;1.40;;;14.60;64.70;;;;;;6217439;28;20049;-80
2023/11/01 14:34:21;;;;;;;9.48;1.52;;;14.90;55.40;;;;;;6217473;28;20058;-80
2023/11/01 14:37:22;;;;;;;9.75;1.40;;;14.80;66.30;;;;;;6218400;28;20046;-79
2023/11/01 14:40:24;;;;;;;8.38;1.55;;;14.50;63.30;;;;;;6216785;28;20053;-79
2023/11/01 14:43:26;;;;;;;11.13;1.83;;;14.30;67.80;;;;;;6216379;28;20054;-80
2023/11/01 14:46:28;;;;;;;13.40;1.75;;;14.20;69.40;;;;;;6216980;28;20558;-81
2023/11/01 14:49:29;;;;;;;8.68;1.52;;;14.10;67.70;;;;;;6222081;28;20049;-79
2023/11/01 14:52:31;;;;;;;10.18;2.25;;;14.00;70.80;;;;;;6221003;28;20049;-80
2023/11/01 14:55:33;;;;;;;17.05;2.50;;;13.90;68.80;;;;;;6222997;28;20057;-80
2023/11/01 14:58:34;;;;;;;19.42;2.47;;;13.80;69.80;;;;;;6220307;28;20058;-82
2023/11/01 15:01:36;;;;;;;17.75;2.63;;;13.70;59.20;;;;;;6222448;28;20066;-81
2023/11/01 15:04:38;;;;;;;16.80;2.88;;;13.60;63.60;;;;;;6222390;28;20045;-81
2023/11/01 15:07:39;;;;;;;15.45;2.25;;;13.50;53.90;;;;;;6222658;28;20200;-80
2023/11/01 15:10:41;;;;;;;20.27;3.10;;;13.50;59.40;;;;;;6222415;28;20568;-78
2023/11/01 15:13:43;;;;;;;14.88;2.42;;;13.40;59.30;;;;;;6221042;28;20069;-78
2023/11/01 15:16:45;;;;;;;12.85;2.60;;;13.30;51.60;;;;;;6199115;28;20498;-79
2023/11/01 15:19:48;;;;;;;13.40;2.97;;;13.20;60.00;;;;;;6221633;28;20049;-78
2023/11/01 15:22:49;;;;;;;12.82;2.17;;;13.20;49.60;;;;;;6222229;28;20058;-79
2023/11/01 15:25:51;;;;;;;12.68;2.33;;;13.20;60.80;;;;;;6222564;28;20058;-78
2023/11/01 15:28:53;;;;;;;13.20;2.60;;;13.10;56.50;;;;;;6217167;28;20054;-76
2023/11/01 15:31:54;;;;;;;16.15;2.42;;;13.00;55.40;;;;;;6220595;28;20054;-76
2023/11/01 15:34:56;;;;;;;13.85;2.63;;;13.00;63.20;;;;;;6221055;28;20399;-79
2023/11/01 15:37:58;;;;;;;14.77;2.60;;;12.90;60.00;;;;;;6221232;28;20046;-79
2023/11/01 15:40:59;;;;;;;14.35;3.08;;;12.90;66.40;;;;;;6222157;28;20050;-80